Time;durP1;ratioP1;P1;durP2;ratioP2;P2;SDS_P1;SDS_P2;PMS_P1;PMS_P2;Temp;Humidity;BMP_temperature;BMP_pressure;BME280_temperature;BME280_humidity;BME280_pressure;Samples;Min_cycle;Max_cycle;Signal;HPM_P1;HPM_P2
2022/05/31 00:00:27;;;;;;;7.47;3.80;;;7.80;99.90;;;;;;4866867;29;20037;-80
2022/05/31 00:02:55;;;;;;;5.13;4.17;;;7.80;99.90;;;;;;4871266;29;20036;-80
2022/05/31 00:05:20;;;;;;;6.20;3.80;;;7.80;99.90;;;;;;4868762;29;20033;-80
2022/05/31 00:07:47;;;;;;;4.63;3.40;;;7.80;99.90;;;;;;4852071;29;20379;-80
2022/05/31 00:10:14;;;;;;;6.97;4.27;;;7.90;99.90;;;;;;4886487;29;20041;-80
2022/05/31 00:12:41;;;;;;;6.43;4.50;;;7.80;99.90;;;;;;4882074;29;20167;-80
2022/05/31 00:15:09;;;;;;;4.93;4.10;;;7.90;99.90;;;;;;4881984;29;20044;-80
2022/05/31 00:17:35;;;;;;;6.63;4.70;;;7.80;99.90;;;;;;4881503;29;20065;-80
2022/05/31 00:20:02;;;;;;;5.13;4.63;;;7.90;99.90;;;;;;4870229;29;20483;-80
2022/05/31 00:22:28;;;;;;;6.33;4.60;;;7.80;99.90;;;;;;4884551;29;20048;-80
2022/05/31 00:24:54;;;;;;;5.87;4.30;;;7.90;99.90;;;;;;4866515;29;20032;-80
2022/05/31 00:27:23;;;;;;;5.07;4.27;;;7.90;99.90;;;;;;4851379;29;20048;-81
2022/05/31 00:29:49;;;;;;;5.07;3.67;;;7.90;99.90;;;;;;4866645;29;20206;-80
2022/05/31 00:32:21;;;;;;;4.87;4.00;;;8.00;99.90;;;;;;4851062;29;20068;-80
2022/05/31 00:34:49;;;;;;;5.10;4.20;;;8.10;99.90;;;;;;4890115;29;20479;-80
2022/05/31 00:37:15;;;;;;;4.50;3.80;;;8.10;99.90;;;;;;4881849;29;20056;-80
2022/05/31 00:39:41;;;;;;;4.97;3.57;;;8.10;99.90;;;;;;4881631;29;20040;-80
2022/05/31 00:42:17;;;;;;;5.90;4.13;;;8.20;99.90;;;;;;4868712;29;20040;-81
2022/05/31 00:44:43;;;;;;;4.97;4.13;;;8.20;99.90;;;;;;4865478;29;20104;-79
2022/05/31 00:47:21;;;;;;;7.13;4.57;;;8.30;99.90;;;;;;4850333;29;20376;-80
2022/05/31 00:49:55;;;;;;;6.07;4.03;;;8.20;99.90;;;;;;4873154;29;20837;-80
2022/05/31 00:52:31;;;;;;;7.80;4.53;;;8.30;99.90;;;;;;4854588;29;20143;-81
2022/05/31 00:55:22;;;;;;;6.40;5.23;;;8.30;99.90;;;;;;4881611;29;20182;-80
2022/05/31 00:58:07;;;;;;;6.60;5.40;;;8.30;99.90;;;;;;4880830;29;20454;-80
2022/05/31 01:00:39;;;;;;;9.97;5.97;;;8.30;99.90;;;;;;4881826;29;20080;-80
2022/05/31 01:03:05;;;;;;;7.18;5.53;;;8.40;99.90;;;;;;4874038;29;20041;-80
2022/05/31 01:05:31;;;;;;;7.70;5.43;;;8.40;99.90;;;;;;4853402;29;20690;-80
2022/05/31 01:07:57;;;;;;;6.40;5.70;;;8.50;99.90;;;;;;4880679;29;20044;-80
2022/05/31 01:10:23;;;;;;;6.77;5.40;;;8.40;99.90;;;;;;4869360;29;20486;-80
2022/05/31 01:12:50;;;;;;;5.87;5.27;;;8.50;99.90;;;;;;4866671;29;20406;-80
2022/05/31 01:15:18;;;;;;;8.27;5.57;;;8.50;99.90;;;;;;4876754;29;20049;-80
2022/05/31 01:17:44;;;;;;;5.50;4.90;;;8.50;99.90;;;;;;4873518;29;20053;-80
2022/05/31 01:20:12;;;;;;;5.77;5.17;;;8.60;99.90;;;;;;4881965;29;20056;-80
2022/05/31 01:23:03;;;;;;;6.20;5.00;;;8.60;99.90;;;;;;4865376;29;20101;-80
2022/05/31 01:25:56;;;;;;;6.27;5.30;;;8.60;99.90;;;;;;4868566;29;21646;-80
2022/05/31 01:28:53;;;;;;;7.13;5.37;;;8.60;99.90;;;;;;4865467;29;20175;-80
2022/05/31 01:31:37;;;;;;;8.50;5.40;;;8.60;99.90;;;;;;4872677;29;20123;-80
2022/05/31 01:34:22;;;;;;;7.37;5.40;;;8.60;99.90;;;;;;4880410;29;20051;-81
2022/05/31 01:36:54;;;;;;;6.33;5.50;;;8.70;99.90;;;;;;4873306;29;20561;-80
2022/05/31 01:39:32;;;;;;;7.78;5.63;;;8.70;99.90;;;;;;4862123;29;20415;-80
2022/05/31 01:42:10;;;;;;;6.87;5.60;;;8.70;99.90;;;;;;4875400;29;20059;-80
2022/05/31 01:44:41;;;;;;;7.50;5.40;;;8.70;99.90;;;;;;4863680;29;20045;-80
2022/05/31 01:47:07;;;;;;;6.10;5.47;;;8.60;99.90;;;;;;4874030;29;20172;-80
2022/05/31 01:49:37;;;;;;;7.30;5.83;;;8.60;99.90;;;;;;4865116;29;20116;-80
2022/05/31 01:52:04;;;;;;;9.43;6.23;;;8.60;99.90;;;;;;4865631;29;20051;-80
2022/05/31 01:54:31;;;;;;;7.70;6.70;;;8.70;99.90;;;;;;4865502;29;20610;-80
2022/05/31 01:57:01;;;;;;;8.03;6.37;;;8.60;99.90;;;;;;4846438;29;20123;-80
2022/05/31 01:59:31;;;;;;;6.17;5.57;;;8.70;99.90;;;;;;4864124;29;20053;-80
2022/05/31 02:01:58;;;;;;;9.67;6.33;;;8.60;99.90;;;;;;4880427;29;20055;-80
2022/05/31 02:04:25;;;;;;;6.73;6.00;;;8.70;99.90;;;;;;4865079;29;20616;-80
2022/05/31 02:07:10;;;;;;;7.33;6.50;;;8.70;99.90;;;;;;4856840;29;20561;-81
2022/05/31 02:09:37;;;;;;;7.13;5.70;;;8.80;99.90;;;;;;4849673;29;20057;-80
2022/05/31 02:12:04;;;;;;;6.40;5.80;;;8.80;99.90;;;;;;4838212;29;20088;-82
2022/05/31 02:14:29;;;;;;;8.37;6.30;;;8.70;99.90;;;;;;4872910;29;20056;-82
2022/05/31 02:16:55;;;;;;;6.87;6.17;;;8.70;99.90;;;;;;4864905;29;20053;-82
2022/05/31 02:19:25;;;;;;;8.60;6.13;;;8.70;99.90;;;;;;4882068;29;20045;-82
2022/05/31 02:21:59;;;;;;;6.50;5.90;;;8.70;99.90;;;;;;4838037;29;20117;-82
2022/05/31 02:24:26;;;;;;;6.23;5.63;;;8.80;99.90;;;;;;4887507;29;20044;-80
2022/05/31 02:26:52;;;;;;;9.47;6.37;;;8.80;99.90;;;;;;4863588;29;20072;-82
2022/05/31 02:29:21;;;;;;;7.23;5.97;;;8.80;99.90;;;;;;4885175;29;20083;-82
2022/05/31 02:31:47;;;;;;;7.60;6.23;;;8.80;99.90;;;;;;4868947;29;20120;-81
2022/05/31 02:34:16;;;;;;;7.77;5.47;;;8.70;99.90;;;;;;4869393;29;20048;-82
2022/05/31 02:36:42;;;;;;;6.13;5.53;;;8.70;99.90;;;;;;4869278;29;20056;-82
2022/05/31 02:39:08;;;;;;;6.73;5.90;;;8.70;99.90;;;;;;4887449;29;20041;-82
2022/05/31 02:41:34;;;;;;;6.50;5.73;;;8.80;99.90;;;;;;4884637;29;20040;-82
2022/05/31 02:44:00;;;;;;;7.43;6.47;;;8.80;99.90;;;;;;4884310;29;20039;-82
2022/05/31 02:46:27;;;;;;;7.47;6.50;;;8.80;99.90;;;;;;4884335;29;20036;-81
2022/05/31 02:48:53;;;;;;;7.33;6.03;;;8.80;99.90;;;;;;4837832;29;20049;-80
2022/05/31 02:51:19;;;;;;;8.00;6.03;;;8.80;99.90;;;;;;4869158;29;20498;-80
2022/05/31 02:53:44;;;;;;;7.67;6.03;;;8.80;99.90;;;;;;4884541;29;20124;-81
2022/05/31 02:56:10;;;;;;;6.37;5.77;;;8.80;99.90;;;;;;4853374;29;20048;-80
2022/05/31 02:58:36;;;;;;;7.40;5.47;;;8.80;99.90;;;;;;4871404;29;20397;-81
2022/05/31 03:01:16;;;;;;;6.07;5.47;;;8.80;99.90;;;;;;4875693;29;20047;-80
2022/05/31 03:03:42;;;;;;;6.50;5.80;;;8.80;99.90;;;;;;4883639;29;20775;-80
2022/05/31 03:06:08;;;;;;;7.50;5.67;;;8.80;99.90;;;;;;4880552;29;20045;-80
2022/05/31 03:08:33;;;;;;;7.03;6.23;;;8.80;99.90;;;;;;4868059;29;20099;-81
2022/05/31 03:11:00;;;;;;;7.13;6.43;;;8.80;99.90;;;;;;4852704;29;20079;-81
2022/05/31 03:13:29;;;;;;;9.10;6.43;;;8.90;99.90;;;;;;4857650;29;20837;-81
2022/05/31 03:16:01;;;;;;;6.83;5.97;;;8.80;99.90;;;;;;4873530;29;20036;-81
2022/05/31 03:18:33;;;;;;;7.30;6.50;;;8.90;99.90;;;;;;4864397;29;20063;-81
2022/05/31 03:21:04;;;;;;;8.55;6.38;;;8.90;99.90;;;;;;4860508;29;20383;-81
2022/05/31 03:23:42;;;;;;;7.40;6.40;;;8.90;99.90;;;;;;4883299;29;20044;-80
2022/05/31 03:26:11;;;;;;;8.17;6.50;;;8.80;99.90;;;;;;4890228;29;20322;-81
2022/05/31 03:28:38;;;;;;;9.10;6.43;;;8.80;99.90;;;;;;4886331;29;20045;-81
2022/05/31 03:31:04;;;;;;;7.13;6.30;;;8.80;99.90;;;;;;4871056;29;20416;-81
2022/05/31 03:33:30;;;;;;;7.13;6.20;;;8.80;99.90;;;;;;4879350;29;20060;-81
2022/05/31 03:35:55;;;;;;;8.47;6.37;;;8.80;99.90;;;;;;4865581;29;20044;-80
2022/05/31 03:38:21;;;;;;;7.73;6.50;;;8.80;99.90;;;;;;4883915;29;20049;-81
2022/05/31 03:40:59;;;;;;;7.00;6.10;;;8.90;99.90;;;;;;4866936;29;20383;-80
2022/05/31 03:43:27;;;;;;;7.20;6.17;;;9.00;99.90;;;;;;4859851;29;20044;-81
2022/05/31 03:45:53;;;;;;;7.17;6.43;;;8.90;99.90;;;;;;4867408;29;20040;-80
2022/05/31 03:48:19;;;;;;;9.57;7.70;;;8.90;99.90;;;;;;4868314;29;20503;-80
2022/05/31 03:50:45;;;;;;;8.53;6.77;;;9.00;99.90;;;;;;4879291;29;20048;-80
2022/05/31 03:53:13;;;;;;;7.97;7.17;;;8.90;99.90;;;;;;4858965;29;20041;-81
2022/05/31 03:55:41;;;;;;;9.17;7.00;;;8.90;99.90;;;;;;4880237;29;20032;-80
2022/05/31 03:58:07;;;;;;;8.50;7.50;;;8.90;99.90;;;;;;4874298;29;20037;-80
2022/05/31 04:00:34;;;;;;;8.87;7.30;;;8.90;99.90;;;;;;4848106;29;20399;-81
2022/05/31 04:02:59;;;;;;;10.03;7.57;;;8.90;99.90;;;;;;4864753;29;20120;-81
2022/05/31 04:05:26;;;;;;;8.57;7.53;;;9.00;99.90;;;;;;4880917;29;20120;-81
2022/05/31 04:07:52;;;;;;;9.20;7.83;;;9.00;99.90;;;;;;4864628;29;20083;-80
2022/05/31 04:10:18;;;;;;;9.23;7.50;;;9.00;99.90;;;;;;4863038;29;20057;-81
2022/05/31 04:12:44;;;;;;;8.67;7.43;;;9.00;99.90;;;;;;4866214;29;20053;-81
2022/05/31 04:15:10;;;;;;;8.33;7.43;;;9.00;99.90;;;;;;4880310;29;20040;-80
2022/05/31 04:17:36;;;;;;;9.50;7.43;;;9.10;99.90;;;;;;4850396;29;20052;-81
2022/05/31 04:20:02;;;;;;;8.63;7.20;;;9.00;99.90;;;;;;4852493;29;20702;-81
2022/05/31 04:22:28;;;;;;;10.20;7.73;;;9.10;99.90;;;;;;4850280;29;20123;-80
2022/05/31 04:24:57;;;;;;;8.30;6.83;;;9.10;99.90;;;;;;4851048;29;20124;-81
2022/05/31 04:27:23;;;;;;;9.43;7.30;;;9.10;99.90;;;;;;4882798;29;20407;-80
2022/05/31 04:29:49;;;;;;;7.90;6.97;;;9.10;99.90;;;;;;4848624;29;20036;-80
2022/05/31 04:32:17;;;;;;;10.27;6.97;;;9.20;99.90;;;;;;4878804;29;20049;-81
2022/05/31 04:34:43;;;;;;;8.27;6.87;;;9.20;99.90;;;;;;4863772;29;20092;-80
2022/05/31 04:37:09;;;;;;;9.40;7.20;;;9.20;99.90;;;;;;4880997;29;20033;-81
2022/05/31 04:39:35;;;;;;;9.40;7.50;;;9.20;99.90;;;;;;4862349;29;20080;-80
2022/05/31 04:42:01;;;;;;;10.53;7.57;;;9.20;99.90;;;;;;4845831;29;20076;-80
2022/05/31 04:44:27;;;;;;;10.83;7.53;;;9.30;99.90;;;;;;4864843;29;20037;-81
2022/05/31 04:46:53;;;;;;;8.13;6.70;;;9.30;99.90;;;;;;4866767;29;20041;-80
2022/05/31 04:49:20;;;;;;;8.83;7.33;;;9.30;99.90;;;;;;4850786;29;20041;-81
2022/05/31 04:51:46;;;;;;;10.33;7.77;;;9.30;99.90;;;;;;4870297;29;20041;-80
2022/05/31 04:54:12;;;;;;;10.60;7.60;;;9.40;99.90;;;;;;4869820;29;20052;-80
2022/05/31 04:56:37;;;;;;;8.57;7.23;;;9.40;99.90;;;;;;4872865;29;20041;-80
2022/05/31 04:59:03;;;;;;;12.17;7.63;;;9.40;99.90;;;;;;4854241;29;20052;-81
2022/05/31 05:01:29;;;;;;;12.47;7.50;;;9.50;99.90;;;;;;4880475;29;20040;-81
2022/05/31 05:03:55;;;;;;;11.87;8.20;;;9.50;99.90;;;;;;4849540;29;20043;-81
2022/05/31 05:06:22;;;;;;;9.80;7.93;;;9.50;99.90;;;;;;4868433;29;20573;-81
2022/05/31 05:08:48;;;;;;;9.23;7.90;;;9.50;99.90;;;;;;4846916;29;20072;-80
2022/05/31 05:11:16;;;;;;;10.53;8.60;;;9.60;99.90;;;;;;4850152;29;20113;-81
2022/05/31 05:13:43;;;;;;;11.00;7.70;;;9.60;99.90;;;;;;4881794;29;20406;-81
2022/05/31 05:16:11;;;;;;;10.80;8.70;;;9.70;99.90;;;;;;4881843;29;20055;-81
2022/05/31 05:18:37;;;;;;;10.77;8.27;;;9.70;99.90;;;;;;4880951;29;20052;-81
2022/05/31 05:21:06;;;;;;;10.37;7.77;;;9.80;99.90;;;;;;4854582;29;20033;-81
2022/05/31 05:23:31;;;;;;;10.70;8.10;;;9.80;99.90;;;;;;4871518;29;20040;-80
2022/05/31 05:25:59;;;;;;;8.90;8.00;;;9.80;99.90;;;;;;4849457;29;20120;-80
2022/05/31 05:31:22;;;;;;;9.30;8.30;;;9.90;99.90;;;;;;4867056;29;20048;-81
2022/05/31 05:33:48;;;;;;;10.80;8.00;;;9.90;99.90;;;;;;4866987;29;20143;-81
2022/05/31 05:36:14;;;;;;;10.33;8.37;;;9.90;99.90;;;;;;4865397;29;20049;-81
2022/05/31 05:38:40;;;;;;;9.10;7.83;;;10.00;99.90;;;;;;4847110;29;20097;-81
2022/05/31 05:41:06;;;;;;;10.70;8.80;;;10.00;99.90;;;;;;4883591;29;20424;-81
2022/05/31 05:43:31;;;;;;;11.63;8.30;;;10.10;99.90;;;;;;4857634;29;20044;-81
2022/05/31 05:45:57;;;;;;;10.63;8.20;;;10.10;99.90;;;;;;4847075;29;20072;-81
2022/05/31 05:48:23;;;;;;;8.63;7.73;;;10.20;99.90;;;;;;4865156;29;20407;-81
2022/05/31 05:50:48;;;;;;;13.67;8.67;;;10.10;99.90;;;;;;4864579;29;20078;-81
2022/05/31 05:53:14;;;;;;;9.57;8.03;;;10.20;99.90;;;;;;4867342;29;20041;-81
2022/05/31 05:55:40;;;;;;;9.47;7.97;;;10.30;99.90;;;;;;4867284;29;20045;-81
2022/05/31 05:58:10;;;;;;;10.20;8.37;;;10.30;99.90;;;;;;4883917;29;20085;-81
2022/05/31 06:00:44;;;;;;;9.90;8.00;;;10.30;99.90;;;;;;4866176;29;20111;-82
2022/05/31 06:03:30;;;;;;;10.63;8.03;;;10.40;99.90;;;;;;4897752;29;20044;-82
2022/05/31 06:05:56;;;;;;;10.97;8.30;;;10.40;99.90;;;;;;4868827;29;20135;-81
2022/05/31 06:08:36;;;;;;;12.53;7.47;;;10.50;99.90;;;;;;4865476;29;20132;-81
2022/05/31 06:11:07;;;;;;;8.80;7.37;;;10.50;99.90;;;;;;4881891;29;20036;-81
2022/05/31 06:13:38;;;;;;;9.07;7.83;;;10.60;99.90;;;;;;4868249;29;20048;-81
2022/05/31 06:16:07;;;;;;;9.33;7.87;;;10.60;99.90;;;;;;4883547;29;20095;-80
2022/05/31 06:18:38;;;;;;;8.50;7.37;;;10.70;99.90;;;;;;4867079;29;20088;-81
2022/05/31 06:21:07;;;;;;;9.95;8.18;;;10.70;99.90;;;;;;4882511;29;20092;-81
2022/05/31 06:23:34;;;;;;;8.60;7.40;;;10.80;99.90;;;;;;4889646;29;20048;-81
2022/05/31 06:26:00;;;;;;;9.17;7.47;;;10.80;99.90;;;;;;4867384;29;20044;-81
2022/05/31 06:28:26;;;;;;;8.73;7.17;;;10.90;99.90;;;;;;4884789;29;20123;-81
2022/05/31 06:30:51;;;;;;;8.63;7.83;;;10.90;99.90;;;;;;4882110;29;20093;-81
2022/05/31 06:33:17;;;;;;;9.23;7.27;;;10.90;99.90;;;;;;4851346;29;20041;-82
2022/05/31 06:35:43;;;;;;;7.50;6.67;;;11.00;99.90;;;;;;4882305;29;20175;-81
2022/05/31 06:38:08;;;;;;;9.50;7.47;;;11.10;99.90;;;;;;4867103;29;20045;-81
2022/05/31 06:40:34;;;;;;;8.77;6.70;;;11.20;99.90;;;;;;4869973;29;20036;-82
2022/05/31 06:43:00;;;;;;;8.17;6.67;;;11.20;99.90;;;;;;4880137;29;20036;-81
2022/05/31 06:45:26;;;;;;;8.67;6.80;;;11.30;99.90;;;;;;4894930;29;20131;-82
2022/05/31 06:47:51;;;;;;;8.23;6.60;;;11.30;99.90;;;;;;4848367;29;20562;-82
2022/05/31 06:50:17;;;;;;;8.27;6.80;;;11.40;99.90;;;;;;4835476;29;20044;-82
2022/05/31 06:58:12;;;;;;;6.93;6.23;;;11.70;99.90;;;;;;4883939;29;20135;-81
2022/05/31 07:00:37;;;;;;;8.37;6.60;;;11.80;99.90;;;;;;4866458;29;20127;-81
2022/05/31 07:03:03;;;;;;;7.67;6.80;;;11.90;99.90;;;;;;4850453;29;20384;-80
2022/05/31 07:05:30;;;;;;;9.57;6.83;;;11.90;99.90;;;;;;4885764;29;20494;-81
2022/05/31 07:07:57;;;;;;;7.07;6.27;;;12.00;99.90;;;;;;4849290;29;20427;-81
2022/05/31 07:10:23;;;;;;;7.13;5.90;;;12.10;99.90;;;;;;4877072;29;20505;-82
2022/05/31 07:12:48;;;;;;;8.07;6.67;;;12.20;99.90;;;;;;4874454;29;20044;-81
2022/05/31 07:15:15;;;;;;;7.93;6.27;;;12.20;99.90;;;;;;4878144;29;20372;-82
2022/05/31 07:17:41;;;;;;;8.33;6.40;;;12.30;99.90;;;;;;4862926;29;20057;-81
2022/05/31 07:20:08;;;;;;;7.20;6.50;;;12.30;99.90;;;;;;4864269;29;20051;-83
2022/05/31 07:22:35;;;;;;;9.63;6.27;;;12.50;99.90;;;;;;4883013;29;20033;-84
2022/05/31 07:25:02;;;;;;;6.73;6.10;;;12.80;99.90;;;;;;4873755;29;20043;-83
2022/05/31 07:27:28;;;;;;;6.77;5.50;;;13.10;99.90;;;;;;4878449;29;20388;-83
2022/05/31 07:29:54;;;;;;;6.27;5.67;;;13.40;99.90;;;;;;4859924;29;20045;-79
2022/05/31 07:32:20;;;;;;;8.40;6.07;;;13.70;99.90;;;;;;4890594;29;20069;-81
2022/05/31 07:34:46;;;;;;;7.27;5.43;;;13.90;99.90;;;;;;4852820;29;20087;-82
2022/05/31 07:37:13;;;;;;;6.00;5.20;;;14.10;99.90;;;;;;4863234;29;20475;-81
2022/05/31 07:39:39;;;;;;;7.50;5.43;;;14.40;99.90;;;;;;4851019;29;20051;-82
2022/05/31 07:42:04;;;;;;;7.70;5.83;;;14.50;99.90;;;;;;4866089;29;20045;-81
2022/05/31 07:44:30;;;;;;;7.20;4.57;;;14.60;99.90;;;;;;4846808;29;20100;-82
2022/05/31 07:46:58;;;;;;;6.27;4.90;;;14.70;99.90;;;;;;4849906;29;20041;-82
2022/05/31 07:49:24;;;;;;;5.67;4.47;;;14.90;99.90;;;;;;4862822;29;20041;-83
2022/05/31 07:51:50;;;;;;;6.70;4.80;;;15.00;99.90;;;;;;4864196;29;20136;-84
2022/05/31 07:54:16;;;;;;;6.38;4.63;;;15.10;99.90;;;;;;4878823;29;20418;-83
2022/05/31 07:56:41;;;;;;;6.28;4.20;;;15.20;99.90;;;;;;4860062;29;20096;-84
2022/05/31 07:59:07;;;;;;;5.43;4.32;;;15.40;99.90;;;;;;4866352;29;20044;-84
2022/05/31 08:01:33;;;;;;;5.00;3.97;;;15.50;99.90;;;;;;4863685;29;20044;-83
2022/05/31 08:03:59;;;;;;;9.32;4.30;;;15.60;99.90;;;;;;4878538;29;20041;-83
2022/05/31 08:06:30;;;;;;;5.45;3.83;;;15.70;99.90;;;;;;4866211;29;20049;-84
2022/05/31 08:08:57;;;;;;;5.30;3.63;;;15.80;99.90;;;;;;4862364;29;20049;-84
2022/05/31 08:11:33;;;;;;;6.20;4.47;;;16.00;99.90;;;;;;4865512;29;20044;-84
2022/05/31 08:14:01;;;;;;;6.68;3.90;;;16.10;99.90;;;;;;4877709;29;20037;-83
2022/05/31 08:16:28;;;;;;;6.38;3.38;;;16.30;99.90;;;;;;4863695;29;20048;-84
2022/05/31 08:18:55;;;;;;;3.83;3.20;;;16.30;99.90;;;;;;4859606;29;20415;-85
2022/05/31 08:21:27;;;;;;;4.65;2.92;;;16.50;99.90;;;;;;4856871;29;20045;-84
2022/05/31 08:24:11;;;;;;;3.85;3.35;;;16.60;99.90;;;;;;4859580;29;20045;-85
2022/05/31 08:26:37;;;;;;;4.78;3.00;;;16.50;99.90;;;;;;4838684;29;20049;-83
2022/05/31 08:29:03;;;;;;;6.93;3.15;;;16.50;99.90;;;;;;4880319;29;20045;-85
2022/05/31 08:31:32;;;;;;;3.28;2.67;;;16.70;99.90;;;;;;4844005;29;20715;-83
2022/05/31 08:33:58;;;;;;;3.25;2.80;;;16.80;99.90;;;;;;4844097;29;20396;-85
2022/05/31 08:36:25;;;;;;;5.35;2.90;;;16.90;99.90;;;;;;4862220;29;20137;-84
2022/05/31 08:38:51;;;;;;;4.22;1.98;;;17.10;99.90;;;;;;4865157;29;20048;-84
2022/05/31 08:41:31;;;;;;;3.47;2.22;;;17.20;99.90;;;;;;4862326;29;20787;-84
2022/05/31 08:44:05;;;;;;;6.28;2.72;;;17.30;99.90;;;;;;4877231;29;20123;-83
2022/05/31 08:46:52;;;;;;;3.60;1.50;;;17.40;99.90;;;;;;4862721;29;20112;-82
2022/05/31 08:52:45;;;;;;;5.93;2.50;;;17.60;99.90;;;;;;4876523;29;20112;-82
2022/05/31 08:58:19;;;;;;;3.83;3.00;;;17.90;99.90;;;;;;4876004;29;20057;-81
2022/05/31 09:00:48;;;;;;;3.53;2.65;;;18.00;99.90;;;;;;4876553;29;20498;-82
2022/05/31 09:03:32;;;;;;;3.63;2.00;;;18.10;99.90;;;;;;4861915;29;20377;-80
2022/05/31 09:06:01;;;;;;;4.13;2.45;;;18.20;99.90;;;;;;4861379;29;20077;-82
2022/05/31 09:08:39;;;;;;;4.47;2.53;;;18.20;99.90;;;;;;4865089;29;20117;-81
2022/05/31 09:11:25;;;;;;;4.35;2.83;;;18.10;99.90;;;;;;4863987;29;20048;-83
2022/05/31 09:13:54;;;;;;;5.93;2.85;;;18.20;96.00;;;;;;4878967;29;20045;-82
2022/05/31 09:16:31;;;;;;;3.95;2.70;;;18.20;99.90;;;;;;4880064;29;20037;-81
2022/05/31 09:19:01;;;;;;;3.70;2.40;;;18.10;99.90;;;;;;4874103;29;20388;-82
2022/05/31 09:21:34;;;;;;;6.13;3.80;;;18.00;99.90;;;;;;4879940;29;20044;-82
2022/05/31 09:24:02;;;;;;;6.88;4.68;;;18.00;96.70;;;;;;4875669;29;20506;-82
2022/05/31 09:27:01;;;;;;;5.60;4.00;;;17.90;99.90;;;;;;4882513;29;20052;-82
2022/05/31 09:29:50;;;;;;;6.55;3.90;;;17.90;96.90;;;;;;4868867;29;20052;-83
2022/05/31 09:32:43;;;;;;;5.75;3.92;;;17.90;99.90;;;;;;4884670;29;20079;-82
2022/05/31 09:35:27;;;;;;;4.18;3.65;;;17.80;99.90;;;;;;4849843;29;20056;-82
2022/05/31 09:38:30;;;;;;;7.53;3.92;;;17.70;99.90;;;;;;4894338;29;20041;-82
2022/05/31 09:41:12;;;;;;;6.97;4.07;;;17.50;99.90;;;;;;4888442;29;20036;-82
2022/05/31 09:44:10;;;;;;;5.15;3.88;;;17.30;99.90;;;;;;4899220;29;20135;-82
2022/05/31 09:46:41;;;;;;;6.18;3.50;;;17.10;99.90;;;;;;4864508;29;20090;-83
2022/05/31 09:49:41;;;;;;;6.33;4.00;;;16.90;99.90;;;;;;4850033;29;20060;-82
2022/05/31 09:52:33;;;;;;;6.05;3.95;;;16.70;99.90;;;;;;4864537;29;20112;-82
2022/05/31 09:58:17;;;;;;;9.05;3.53;;;16.40;99.90;;;;;;4890451;29;20426;-82
2022/05/31 10:01:12;;;;;;;5.32;3.30;;;16.30;99.90;;;;;;4900043;29;20120;-82
2022/05/31 10:03:40;;;;;;;4.35;2.45;;;16.20;99.90;;;;;;4867643;29;20083;-81
2022/05/31 10:06:22;;;;;;;5.68;2.83;;;16.10;99.90;;;;;;4868102;29;20048;-82
2022/05/31 10:08:52;;;;;;;2.95;2.47;;;16.00;99.90;;;;;;4877417;29;20044;-81
2022/05/31 10:11:43;;;;;;;4.63;2.40;;;16.00;99.90;;;;;;4876664;29;20049;-80
2022/05/31 10:14:20;;;;;;;5.18;2.83;;;16.00;99.90;;;;;;4856196;29;20076;-82
2022/05/31 10:16:49;;;;;;;5.93;3.30;;;16.00;99.90;;;;;;4882299;29;20064;-82
2022/05/31 10:19:30;;;;;;;7.78;3.83;;;16.00;99.90;;;;;;4882763;29;20056;-82
2022/05/31 10:22:13;;;;;;;3.85;3.03;;;16.00;99.90;;;;;;4898339;29;20056;-82
2022/05/31 10:24:38;;;;;;;6.57;3.05;;;15.90;99.90;;;;;;4883101;29;20040;-82
2022/05/31 10:27:27;;;;;;;6.15;3.60;;;15.90;99.90;;;;;;4889111;29;20044;-81
2022/05/31 10:30:15;;;;;;;5.50;2.97;;;16.00;99.90;;;;;;4865315;29;20085;-81
2022/05/31 10:32:46;;;;;;;4.68;3.05;;;16.00;99.90;;;;;;4885614;29;20100;-81
2022/05/31 10:35:16;;;;;;;3.55;2.95;;;16.20;99.90;;;;;;4890595;29;20054;-81
2022/05/31 10:38:22;;;;;;;3.53;2.85;;;16.30;99.90;;;;;;4878332;29;20084;-82
2022/05/31 10:41:11;;;;;;;5.72;3.60;;;16.60;99.90;;;;;;4866610;29;20545;-81
2022/05/31 10:43:46;;;;;;;4.93;3.28;;;17.00;99.90;;;;;;4883352;29;20063;-82
2022/05/31 10:46:31;;;;;;;7.10;3.20;;;17.30;99.90;;;;;;4868061;29;20049;-82
2022/05/31 10:49:04;;;;;;;5.35;2.95;;;17.70;98.00;;;;;;4872919;29;20040;-81
2022/05/31 10:51:43;;;;;;;5.60;3.00;;;17.80;95.80;;;;;;4871020;29;20044;-81
2022/05/31 10:54:35;;;;;;;3.95;3.05;;;17.80;84.30;;;;;;4867924;29;20041;-82
2022/05/31 10:57:22;;;;;;;6.05;3.38;;;17.70;91.40;;;;;;4845718;29;20052;-81
2022/05/31 11:00:08;;;;;;;4.78;3.10;;;17.80;88.20;;;;;;4891948;29;20052;-82
2022/05/31 11:02:50;;;;;;;5.60;2.90;;;17.90;85.40;;;;;;4863271;29;20045;-81
2022/05/31 11:05:21;;;;;;;5.05;2.72;;;17.90;88.60;;;;;;4865751;29;20128;-81
2022/05/31 11:11:30;;;;;;;;;;;17.90;71.10;;;;;;4867594;29;20139;-82
2022/05/31 11:14:01;;;;;;;5.03;3.40;;;17.90;81.30;;;;;;4875281;29;19997;-82
2022/05/31 11:16:47;;;;;;;5.75;3.03;;;17.90;80.10;;;;;;4873864;29;20053;-83
2022/05/31 11:19:33;;;;;;;5.20;2.90;;;17.90;86.70;;;;;;4897506;29;20088;-83
2022/05/31 11:22:17;;;;;;;4.30;3.00;;;17.90;90.90;;;;;;4876916;29;20060;-84
2022/05/31 11:25:06;;;;;;;5.20;2.70;;;17.90;86.60;;;;;;4907474;29;20052;-83
2022/05/31 11:28:03;;;;;;;3.80;2.95;;;17.90;80.40;;;;;;4900606;29;20360;-84
2022/05/31 11:30:50;;;;;;;5.68;3.10;;;17.80;86.00;;;;;;4881238;29;20041;-83
2022/05/31 11:33:31;;;;;;;4.00;3.17;;;17.80;76.80;;;;;;4877171;29;20044;-83
2022/05/31 11:36:31;;;;;;;3.77;3.43;;;17.60;85.00;;;;;;4873779;29;20048;-83
2022/05/31 11:39:28;;;;;;;4.13;3.70;;;17.60;80.70;;;;;;4865486;29;20309;-82
2022/05/31 11:42:15;;;;;;;6.72;3.40;;;17.60;88.40;;;;;;4865885;29;21381;-83
2022/05/31 11:44:46;;;;;;;9.43;4.03;;;17.50;76.80;;;;;;4897161;29;20493;-83
2022/05/31 11:47:36;;;;;;;6.15;3.67;;;17.50;83.60;;;;;;4892853;29;20129;-83
2022/05/31 11:50:20;;;;;;;4.55;3.30;;;17.40;70.10;;;;;;4848803;29;20124;-83
2022/05/31 11:53:11;;;;;;;6.80;3.40;;;17.40;77.20;;;;;;4884833;29;20049;-83
2022/05/31 11:55:46;;;;;;;6.43;3.85;;;17.40;76.70;;;;;;4890402;29;20041;-82
2022/05/31 11:58:15;;;;;;;4.38;3.28;;;17.40;82.10;;;;;;4896841;29;20057;-83
2022/05/31 12:00:48;;;;;;;4.45;3.20;;;17.40;80.80;;;;;;4884729;29;20112;-83
2022/05/31 12:03:23;;;;;;;6.25;3.53;;;17.50;81.50;;;;;;4868449;29;20856;-83
2022/05/31 12:05:57;;;;;;;3.88;3.10;;;17.60;86.50;;;;;;4869138;29;20132;-84
2022/05/31 12:08:34;;;;;;;7.28;3.38;;;17.60;82.50;;;;;;4887602;29;20076;-83
2022/05/31 12:11:08;;;;;;;5.60;3.22;;;17.70;78.80;;;;;;4885044;29;20044;-83
2022/05/31 12:13:44;;;;;;;5.50;3.30;;;17.70;74.30;;;;;;4880724;29;20059;-83
2022/05/31 12:16:11;;;;;;;5.55;3.67;;;17.70;71.80;;;;;;4878914;29;20135;-83
2022/05/31 12:18:49;;;;;;;4.32;3.20;;;17.80;76.90;;;;;;4865260;29;20545;-84
2022/05/31 12:21:19;;;;;;;3.83;3.20;;;17.70;71.50;;;;;;4873007;29;20055;-84
2022/05/31 12:23:54;;;;;;;6.68;3.80;;;17.70;72.00;;;;;;4888958;29;20040;-83
2022/05/31 12:26:33;;;;;;;5.55;3.53;;;17.70;71.80;;;;;;4865786;29;20486;-83
2022/05/31 12:29:05;;;;;;;4.05;3.65;;;17.60;77.50;;;;;;4895305;29;20040;-83
2022/05/31 12:31:34;;;;;;;7.82;3.95;;;17.70;77.80;;;;;;4889983;29;20044;-84
2022/05/31 12:34:18;;;;;;;4.25;3.17;;;17.70;77.40;;;;;;4880563;29;20502;-84
2022/05/31 12:37:03;;;;;;;5.38;3.50;;;17.60;75.10;;;;;;4880257;29;20074;-83
2022/05/31 12:39:32;;;;;;;6.93;3.65;;;17.50;79.00;;;;;;4866420;29;20033;-83
2022/05/31 12:42:14;;;;;;;7.00;3.90;;;17.50;85.70;;;;;;4890781;29;20045;-83
2022/05/31 12:44:42;;;;;;;6.15;3.70;;;17.50;83.40;;;;;;4876780;29;20120;-83
2022/05/31 12:47:27;;;;;;;6.88;3.92;;;17.30;80.70;;;;;;4867210;29;20049;-83
2022/05/31 12:49:55;;;;;;;7.95;4.78;;;17.40;85.20;;;;;;4890374;29;20048;-83
2022/05/31 12:55:03;;;;;;;4.80;4.30;;;17.40;74.90;;;;;;4879515;29;20087;-84
2022/05/31 12:58:26;;;;;;;7.10;4.20;;;17.40;77.10;;;;;;4877417;29;20471;-83
2022/05/31 13:00:32;;;;;;;6.13;4.45;;;17.40;75.90;;;;;;4883672;29;20132;-84
2022/05/31 13:02:59;;;;;;;6.90;4.20;;;17.40;74.00;;;;;;4889812;29;20555;-84
2022/05/31 13:05:37;;;;;;;7.30;4.25;;;17.40;80.30;;;;;;4864757;29;20127;-84
2022/05/31 13:08:57;;;;;;;5.03;4.15;;;17.50;77.40;;;;;;4864376;29;20099;-84
2022/05/31 13:20:28;;;;;;;8.10;4.97;;;17.60;72.80;;;;;;4895646;29;20056;-84
2022/05/31 13:22:58;;;;;;;6.25;4.28;;;17.60;72.80;;;;;;4879488;29;20051;-84
2022/05/31 13:25:28;;;;;;;7.63;4.18;;;17.60;78.60;;;;;;4882735;29;20047;-86
2022/05/31 13:28:00;;;;;;;6.55;4.38;;;17.60;76.30;;;;;;4880074;29;20043;-84
2022/05/31 13:30:32;;;;;;;6.38;4.65;;;17.60;72.70;;;;;;4846210;29;20460;-83
2022/05/31 13:32:59;;;;;;;7.63;5.28;;;17.60;74.60;;;;;;4881581;29;20044;-85
2022/05/31 13:35:29;;;;;;;7.15;4.70;;;17.50;77.70;;;;;;4879469;29;20754;-84
2022/05/31 13:38:05;;;;;;;7.30;4.30;;;17.50;72.10;;;;;;4868917;29;20045;-84
2022/05/31 13:40:42;;;;;;;6.45;4.18;;;17.50;73.80;;;;;;4894907;29;20132;-84
2022/05/31 13:43:22;;;;;;;6.13;4.75;;;17.40;77.30;;;;;;4879536;29;20040;-85
2022/05/31 13:45:54;;;;;;;7.30;4.97;;;17.30;78.50;;;;;;4873357;29;20048;-87
2022/05/31 13:48:27;;;;;;;8.95;5.65;;;17.30;83.20;;;;;;4874589;29;20067;-86